createdAt,value
2018-04-12T00:00:37.362Z,35.13
2018-04-12T00:03:04.899Z,33.30
2018-04-12T00:05:32.428Z,35.30
2018-04-12T00:08:00.733Z,33.00
2018-04-12T00:10:28.255Z,36.10
2018-04-12T00:12:55.786Z,33.00
2018-04-12T00:15:23.311Z,34.57
2018-04-12T00:17:51.622Z,35.17
2018-04-12T00:20:19.138Z,33.90
2018-04-12T00:22:46.677Z,35.30
2018-04-12T00:25:14.288Z,34.03
2018-04-12T00:27:41.824Z,34.20
2018-04-12T00:30:09.378Z,34.67
2018-04-12T00:32:36.976Z,36.43
2018-04-12T00:35:05.446Z,35.40
2018-04-12T00:37:33.004Z,34.63
2018-04-12T00:40:00.535Z,34.87
2018-04-12T00:42:28.056Z,35.20
2018-04-12T00:44:55.603Z,33.90
2018-04-12T00:47:24.038Z,34.40
2018-04-12T00:49:51.575Z,35.50
2018-04-12T00:52:19.098Z,34.93
2018-04-12T00:54:46.659Z,35.60
2018-04-12T00:57:14.272Z,35.77
2018-04-12T00:59:41.889Z,36.43
2018-04-12T01:02:09.429Z,35.50
2018-04-12T01:04:36.990Z,36.70
2018-04-12T01:07:04.611Z,36.30
2018-04-12T01:09:32.923Z,35.53
2018-04-12T01:12:00.449Z,36.00
2018-04-12T01:14:27.989Z,34.00
2018-04-12T01:16:55.522Z,36.40
2018-04-12T01:19:23.067Z,36.80
2018-04-12T01:21:50.642Z,37.03
2018-04-12T01:24:18.175Z,37.00
2018-04-12T01:26:45.706Z,36.13
2018-04-12T01:29:13.243Z,36.33
2018-04-12T01:31:40.772Z,34.60
2018-04-12T01:34:09.086Z,38.53
2018-04-12T01:36:36.609Z,34.97
2018-04-12T01:39:04.137Z,36.50
2018-04-12T01:41:31.684Z,36.60
2018-04-12T01:43:59.203Z,35.30
2018-04-12T01:46:27.509Z,35.03
2018-04-12T01:48:55.063Z,38.60
2018-04-12T01:51:22.598Z,35.37
2018-04-12T01:53:50.131Z,38.30
2018-04-12T01:56:17.676Z,38.10
2018-04-12T01:58:45.194Z,36.87
2018-04-12T02:01:13.496Z,36.30
2018-04-12T02:03:41.043Z,36.70
2018-04-12T02:06:08.578Z,35.57
2018-04-12T02:08:36.102Z,36.70
2018-04-12T02:11:03.637Z,38.87
2018-04-12T02:13:31.943Z,36.33
2018-04-12T02:15:59.474Z,36.80
2018-04-12T02:18:26.993Z,35.23
2018-04-12T02:20:54.542Z,35.57
2018-04-12T02:23:22.071Z,37.67
2018-04-12T02:25:50.389Z,39.00
2018-04-12T02:28:17.910Z,37.50
2018-04-12T02:30:45.477Z,34.93
2018-04-12T02:33:13.002Z,36.87
2018-04-12T02:35:40.576Z,37.10
2018-04-12T02:38:09.428Z,36.40
2018-04-12T02:40:37.077Z,38.40
2018-04-12T02:43:04.606Z,37.37
2018-04-12T02:45:32.141Z,36.93
2018-04-12T02:47:59.664Z,36.57
2018-04-12T02:50:27.946Z,37.50
2018-04-12T02:52:55.507Z,36.70
2018-04-12T02:55:23.061Z,39.23
2018-04-12T02:57:50.591Z,37.87
2018-04-12T03:00:18.110Z,39.97
2018-04-12T03:02:46.514Z,38.03
2018-04-12T03:05:14.066Z,36.43
2018-04-12T03:07:41.640Z,37.80
2018-04-12T03:10:09.682Z,37.30
2018-04-12T03:12:37.235Z,38.00
2018-04-12T03:15:05.522Z,39.17
2018-04-12T03:17:33.930Z,39.00
2018-04-12T03:20:01.460Z,36.40
2018-04-12T03:22:29.017Z,39.97
2018-04-12T03:24:56.537Z,38.53
2018-04-12T03:27:24.107Z,37.57
2018-04-12T03:29:51.644Z,39.47
2018-04-12T03:32:19.182Z,40.93
2018-04-12T03:34:46.704Z,39.23
2018-04-12T03:37:14.256Z,38.53
2018-04-12T03:39:41.791Z,39.07
2018-04-12T03:42:10.274Z,37.90
2018-04-12T03:44:37.808Z,37.77
2018-04-12T03:47:05.346Z,39.70
2018-04-12T03:49:32.876Z,39.60
2018-04-12T03:52:00.431Z,38.63
2018-04-12T03:54:28.018Z,38.27
2018-04-12T03:56:55.658Z,40.10
2018-04-12T03:59:23.183Z,40.53
2018-04-12T04:01:50.742Z,39.17
2018-04-12T04:04:18.266Z,40.70
2018-04-12T04:06:45.884Z,42.70
2018-04-12T04:09:14.511Z,39.20
2018-04-12T04:11:42.044Z,39.90
2018-04-12T04:14:23.966Z,41.50
2018-04-12T04:17:04.180Z,40.27
2018-04-12T04:19:43.647Z,41.80
2018-04-12T04:22:12.064Z,41.47
2018-04-12T04:24:39.588Z,40.90
2018-04-12T04:27:07.115Z,40.63
2018-04-12T04:29:34.657Z,41.17
2018-04-12T04:32:02.178Z,41.43
2018-04-12T04:34:29.723Z,40.27
2018-04-12T04:36:57.363Z,41.20
2018-04-12T04:39:24.902Z,39.17
2018-04-12T04:41:53.195Z,43.10
2018-04-12T04:44:21.594Z,40.73
2018-04-12T04:46:49.111Z,41.37
2018-04-12T04:49:16.643Z,42.10
2018-04-12T04:51:44.930Z,41.37
2018-04-12T04:54:12.492Z,43.03
2018-04-12T04:56:40.031Z,40.17
2018-04-12T04:59:07.682Z,40.23
2018-04-12T05:01:35.198Z,39.73
2018-04-12T05:04:02.723Z,39.87
2018-04-12T05:06:31.034Z,39.00
2018-04-12T05:08:58.558Z,41.17
2018-04-12T05:11:26.107Z,40.00
2018-04-12T05:13:53.644Z,39.90
2018-04-12T05:16:21.193Z,40.13
2018-04-12T05:18:48.714Z,39.70
2018-04-12T05:21:17.007Z,40.90
2018-04-12T05:23:44.647Z,38.93
2018-04-12T05:26:13.320Z,37.83
2018-04-12T05:28:40.883Z,38.30
2018-04-12T05:31:08.463Z,39.77
2018-04-12T05:33:35.982Z,38.40
2018-04-12T05:36:03.519Z,38.07
2018-04-12T05:38:31.214Z,38.17
2018-04-12T05:40:59.520Z,37.03
2018-04-12T05:43:27.051Z,37.03
2018-04-12T05:45:54.588Z,36.80
2018-04-12T05:48:22.111Z,37.87
2018-04-12T05:50:50.432Z,38.07
2018-04-12T05:53:19.582Z,35.47
2018-04-12T05:55:47.130Z,35.03
2018-04-12T05:58:14.675Z,36.07
2018-04-12T06:00:42.230Z,37.97
2018-04-12T06:03:09.793Z,35.57
2018-04-12T06:05:37.339Z,35.85
2018-04-12T06:08:04.897Z,35.47
2018-04-12T06:10:33.226Z,35.83
2018-04-12T06:13:00.767Z,33.60
2018-04-12T06:15:28.407Z,34.27
2018-04-12T06:17:56.114Z,33.60
2018-04-12T06:20:23.702Z,35.07
2018-04-12T06:22:51.247Z,33.70
2018-04-12T06:25:18.914Z,33.60
2018-04-12T06:27:46.467Z,33.33
2018-04-12T06:30:14.799Z,32.53
2018-04-12T06:32:42.338Z,33.53
2018-04-12T06:35:09.913Z,34.20
2018-04-12T06:37:37.482Z,32.10
2018-04-12T06:40:05.002Z,32.23
2018-04-12T06:42:32.851Z,32.90
2018-04-12T06:45:00.490Z,31.03
2018-04-12T06:47:28.131Z,31.87
2018-04-12T06:49:55.655Z,33.50
2018-04-12T06:52:23.202Z,30.10
2018-04-12T06:54:50.821Z,34.13
2018-04-12T06:57:18.471Z,30.77
2018-04-12T06:59:46.248Z,29.23
2018-04-12T07:02:14.735Z,30.40
2018-04-12T07:04:42.274Z,29.20
2018-04-12T07:07:09.819Z,29.53
2018-04-12T07:09:37.347Z,30.40
2018-04-12T07:12:05.007Z,28.73
2018-04-12T07:14:32.523Z,27.67
2018-04-12T07:17:00.067Z,27.37
2018-04-12T07:19:27.591Z,28.27
2018-04-12T07:21:55.905Z,28.70
2018-04-12T07:24:23.428Z,26.77
2018-04-12T07:26:51.055Z,27.83
2018-04-12T07:29:18.618Z,26.50
2018-04-12T07:31:46.147Z,27.23
2018-04-12T07:34:13.702Z,26.07
2018-04-12T07:36:41.259Z,26.70
2018-04-12T07:39:08.827Z,26.63
2018-04-12T07:41:37.144Z,28.70
2018-04-12T07:44:04.710Z,28.00
2018-04-12T07:46:32.235Z,26.30
2018-04-12T07:48:59.826Z,23.80
2018-04-12T07:51:27.352Z,26.10
2018-04-12T07:53:54.902Z,23.83
2018-04-12T07:56:22.425Z,23.93
2018-04-12T07:58:49.989Z,24.87
2018-04-12T08:01:17.539Z,24.57
2018-04-12T08:03:45.176Z,24.43
2018-04-12T08:06:12.799Z,24.37
2018-04-12T08:08:40.351Z,24.73
2018-04-12T08:11:07.875Z,24.17
2018-04-12T08:13:36.186Z,23.50
2018-04-12T08:16:03.752Z,24.23
2018-04-12T08:18:31.289Z,23.97
2018-04-12T08:20:58.909Z,23.43
2018-04-12T08:23:26.558Z,25.07
2018-04-12T08:25:54.100Z,23.17
2018-04-12T08:28:21.651Z,23.90
2018-04-12T08:30:49.218Z,26.13
2018-04-12T08:33:17.846Z,23.23
2018-04-12T08:35:45.371Z,23.67
2018-04-12T08:38:13.073Z,22.43
2018-04-12T08:40:40.601Z,22.80
2018-04-12T08:43:08.413Z,23.13
2018-04-12T08:45:36.719Z,25.30
2018-04-12T08:48:04.250Z,25.07
2018-04-12T08:50:31.798Z,26.40
2018-04-12T08:52:59.322Z,28.90
2018-04-12T08:55:26.861Z,23.85
2018-04-12T08:57:54.398Z,24.17
2018-04-12T09:00:21.948Z,25.00
2018-04-12T09:02:49.481Z,27.90
2018-04-12T09:05:18.397Z,23.95
2018-04-12T09:07:45.911Z,24.53
2018-04-12T09:10:13.472Z,23.33
2018-04-12T09:12:40.999Z,23.00
2018-04-12T09:15:08.673Z,24.00
2018-04-12T09:17:36.192Z,22.60
2018-04-12T09:20:03.726Z,23.20
2018-04-12T09:22:31.266Z,23.23
2018-04-12T09:24:58.816Z,23.03
2018-04-12T09:27:26.334Z,22.37
2018-04-12T09:29:54.739Z,21.90
2018-04-12T09:32:22.274Z,22.97
2018-04-12T09:34:49.822Z,21.23
2018-04-12T09:37:17.360Z,21.30
2018-04-12T09:39:44.947Z,21.13
2018-04-12T09:42:12.483Z,21.53
2018-04-12T09:44:40.019Z,21.60
2018-04-12T09:49:39.548Z,20.50
2018-04-12T09:52:07.273Z,19.93
2018-04-12T09:54:35.255Z,19.10
2018-04-12T09:57:02.777Z,19.63
2018-04-12T09:59:30.411Z,21.47
2018-04-12T10:02:01.945Z,18.50
2018-04-12T10:04:29.483Z,20.60
2018-04-12T10:07:02.660Z,20.07
2018-04-12T10:09:30.185Z,18.80
2018-04-12T10:11:57.802Z,19.30
2018-04-12T10:14:26.167Z,18.70
2018-04-12T10:16:54.470Z,18.77
2018-04-12T10:19:22.007Z,20.10
2018-04-12T10:21:49.546Z,18.60
2018-04-12T10:24:17.062Z,18.17
2018-04-12T10:26:44.609Z,23.40
2018-04-12T10:29:12.915Z,18.40
2018-04-12T10:31:40.465Z,19.57
2018-04-12T10:34:08.008Z,19.50
2018-04-12T10:36:35.558Z,17.10
2018-04-12T10:39:03.097Z,18.70
2018-04-12T10:41:30.840Z,20.50
2018-04-12T10:43:58.352Z,18.90
2018-04-12T10:46:26.649Z,19.77
2018-04-12T10:48:54.170Z,19.90
2018-04-12T10:51:21.740Z,22.43
2018-04-12T10:53:49.260Z,19.33
2018-04-12T10:56:16.803Z,19.20
2018-04-12T10:58:44.327Z,19.40
2018-04-12T11:01:12.642Z,19.83
2018-04-12T11:03:40.218Z,16.90
2018-04-12T11:08:40.715Z,24.10
2018-04-12T11:11:08.511Z,17.07
2018-04-12T11:13:36.074Z,17.53
2018-04-12T11:16:03.741Z,16.67
2018-04-12T11:18:31.364Z,16.07
2018-04-12T11:20:58.833Z,15.87
2018-04-12T11:23:26.410Z,15.30
2018-04-12T11:25:54.048Z,14.57
2018-04-12T11:28:21.591Z,13.73
2018-04-12T11:30:50.619Z,14.30
2018-04-12T11:33:19.118Z,16.23
2018-04-12T11:35:46.662Z,13.50
2018-04-12T11:38:14.206Z,15.40
2018-04-12T11:40:41.772Z,12.87
2018-04-12T11:43:09.340Z,10.80
2018-04-12T11:45:36.931Z,10.90
2018-04-12T11:48:04.520Z,9.70
2018-04-12T11:50:32.823Z,10.17
2018-04-12T11:53:00.358Z,9.60
2018-04-12T11:55:28.006Z,8.70
2018-04-12T11:57:56.270Z,9.53
2018-04-12T12:00:23.824Z,10.73
2018-04-12T12:02:51.362Z,9.70
2018-04-12T12:05:18.946Z,11.60
2018-04-12T12:07:46.547Z,9.83
2018-04-12T12:10:14.086Z,9.53
2018-04-12T12:12:41.647Z,9.70
2018-04-12T12:15:09.180Z,9.10
2018-04-12T12:17:36.734Z,9.90
2018-04-12T12:20:04.320Z,8.60
2018-04-12T12:22:31.860Z,9.37
2018-04-12T12:24:59.431Z,11.10
2018-04-12T12:27:27.816Z,10.83
2018-04-12T12:29:55.346Z,10.20
2018-04-12T12:32:22.923Z,9.63
2018-04-12T12:34:50.467Z,9.80
2018-04-12T12:37:18.018Z,10.33
2018-04-12T12:39:45.674Z,8.63
2018-04-12T12:42:13.191Z,8.83
2018-04-12T12:44:40.751Z,9.50
2018-04-12T12:47:08.267Z,9.00
2018-04-12T12:49:35.814Z,8.13
2018-04-12T12:52:04.095Z,8.93
2018-04-12T12:54:31.634Z,8.30
2018-04-12T12:56:59.154Z,8.03
2018-04-12T12:59:27.494Z,8.60
2018-04-12T13:01:55.828Z,8.50
2018-04-12T13:04:26.367Z,9.82
2018-04-12T13:06:54.079Z,10.53
2018-04-12T13:09:22.446Z,10.00
2018-04-12T13:11:49.974Z,9.33
2018-04-12T13:14:17.527Z,8.73
2018-04-12T13:16:45.108Z,10.10
2018-04-12T13:19:13.457Z,9.10
2018-04-12T13:21:41.380Z,9.80
2018-04-12T13:24:08.995Z,9.07
2018-04-12T13:26:37.303Z,9.13
2018-04-12T13:29:05.033Z,8.97
2018-04-12T13:31:32.567Z,9.37
2018-04-12T13:34:00.122Z,9.27
2018-04-12T13:36:27.702Z,9.40
2018-04-12T13:38:55.242Z,8.87
2018-04-12T13:41:22.751Z,9.87
2018-04-12T13:43:50.299Z,9.47
2018-04-12T13:46:17.834Z,9.13
2018-04-12T13:48:46.173Z,9.30
2018-04-12T13:51:14.491Z,10.13
2018-04-12T13:53:42.019Z,9.83
2018-04-12T13:56:09.660Z,8.23
2018-04-12T13:58:37.179Z,8.40
2018-04-12T14:01:05.474Z,9.03
2018-04-12T14:03:32.987Z,9.47
2018-04-12T14:06:01.295Z,8.70
2018-04-12T14:08:28.834Z,9.00
2018-04-12T14:10:56.373Z,9.10
2018-04-12T14:13:23.910Z,9.77
2018-04-12T14:15:51.438Z,9.70
2018-04-12T14:18:18.959Z,9.67
2018-04-12T14:20:47.253Z,9.90
2018-04-12T14:23:14.771Z,9.40
2018-04-12T14:25:43.083Z,10.13
2018-04-12T14:28:10.604Z,9.60
2018-04-12T14:30:38.159Z,11.07
2018-04-12T14:33:05.683Z,10.10
2018-04-12T14:35:33.236Z,9.20
2018-04-12T14:38:00.827Z,10.07
2018-04-12T14:40:29.164Z,9.77
2018-04-12T14:42:56.695Z,10.70
2018-04-12T14:45:24.263Z,10.77
2018-04-12T14:47:51.847Z,10.23
2018-04-12T14:50:20.148Z,9.47
2018-04-12T14:52:47.705Z,10.27
2018-04-12T14:55:15.266Z,10.60
2018-04-12T14:57:42.885Z,8.90
2018-04-12T15:00:11.154Z,10.63
2018-04-12T15:02:38.692Z,10.30
2018-04-12T15:05:06.235Z,11.80
2018-04-12T15:07:33.774Z,12.17
2018-04-12T15:10:01.296Z,12.37
2018-04-12T15:12:30.626Z,11.77
2018-04-12T15:14:58.170Z,11.80
2018-04-12T15:17:25.730Z,12.93
2018-04-12T15:19:53.300Z,13.73
2018-04-12T15:22:21.608Z,15.17
2018-04-12T15:24:49.139Z,15.53
2018-04-12T15:27:19.217Z,15.10
2018-04-12T15:29:46.775Z,17.37
2018-04-12T15:32:15.280Z,15.20
2018-04-12T15:34:42.827Z,14.67
2018-04-12T15:37:10.517Z,14.40
2018-04-12T15:39:38.871Z,14.00
2018-04-12T15:42:06.406Z,13.80
2018-04-12T15:44:34.020Z,15.03
2018-04-12T15:47:01.615Z,14.07
2018-04-12T15:49:29.149Z,13.57
2018-04-12T15:51:56.701Z,15.30
2018-04-12T15:54:25.044Z,14.30
2018-04-12T15:56:52.583Z,14.20
2018-04-12T15:59:20.111Z,15.47
2018-04-12T16:01:47.775Z,15.67
2018-04-12T16:04:15.315Z,16.57
2018-04-12T16:06:43.744Z,18.48
2018-04-12T16:09:11.310Z,16.57
2018-04-12T16:11:38.857Z,16.60
2018-04-12T16:14:06.389Z,16.67
2018-04-12T16:16:33.956Z,16.30
2018-04-12T16:19:01.504Z,18.20
2018-04-12T16:21:29.052Z,18.10
2018-04-12T16:23:56.602Z,17.60
2018-04-12T16:26:24.900Z,18.23
2018-04-12T16:28:52.668Z,20.87
2018-04-12T16:31:20.243Z,18.30
2018-04-12T16:33:47.786Z,18.77
2018-04-12T16:36:15.311Z,16.80
2018-04-12T16:38:42.850Z,18.60
2018-04-12T16:41:10.374Z,19.03
2018-04-12T16:43:38.738Z,20.27
2018-04-12T16:46:06.402Z,19.73
2018-04-12T16:48:33.935Z,20.17
2018-04-12T16:51:01.482Z,19.33
2018-04-12T16:53:29.987Z,19.90
2018-04-12T16:55:57.741Z,19.77
2018-04-12T16:58:25.350Z,18.87
2018-04-12T17:00:52.911Z,19.00
2018-04-12T17:03:20.464Z,21.90
2018-04-12T17:05:48.027Z,21.67
2018-04-12T17:08:15.554Z,20.40
2018-04-12T17:10:43.178Z,21.33
2018-04-12T17:13:10.722Z,21.70
2018-04-12T17:15:38.268Z,21.23
2018-04-12T17:18:05.844Z,22.50
2018-04-12T17:20:34.150Z,20.90
2018-04-12T17:23:02.443Z,20.70
2018-04-12T17:25:31.006Z,20.90
2018-04-12T17:27:58.542Z,22.57
2018-04-12T17:30:26.080Z,21.50
2018-04-12T17:32:53.634Z,21.77
2018-04-12T17:35:21.222Z,22.00
2018-04-12T17:37:48.748Z,23.23
2018-04-12T17:40:16.282Z,21.23
2018-04-12T17:42:43.803Z,23.87
2018-04-12T17:45:11.354Z,22.03
2018-04-12T17:47:38.903Z,26.13
2018-04-12T17:50:06.481Z,24.10
2018-04-12T17:52:34.062Z,24.53
2018-04-12T17:55:02.379Z,24.87
2018-04-12T17:57:29.922Z,23.17
2018-04-12T17:59:57.456Z,24.00
2018-04-12T18:02:25.113Z,26.03
2018-04-12T18:04:52.662Z,30.70
2018-04-12T18:07:20.191Z,27.63
2018-04-12T18:09:47.735Z,28.87
2018-04-12T18:12:15.278Z,30.30
2018-04-12T18:14:42.877Z,29.07
2018-04-12T18:17:11.219Z,30.20
2018-04-12T18:19:38.832Z,29.17
2018-04-12T18:22:06.376Z,28.93
2018-04-12T18:24:34.110Z,30.60
2018-04-12T18:27:01.758Z,28.87
2018-04-12T18:29:29.305Z,29.30
2018-04-12T18:31:56.873Z,29.60
2018-04-12T18:34:24.461Z,27.73
2018-04-12T18:36:52.773Z,28.20
2018-04-12T18:39:20.296Z,29.40
2018-04-12T18:41:47.870Z,28.00
2018-04-12T18:44:15.482Z,32.07
2018-04-12T18:46:43.052Z,28.27
2018-04-12T18:49:10.675Z,30.43
2018-04-12T18:51:39.066Z,31.27
2018-04-12T18:54:07.327Z,31.17
2018-04-12T18:56:34.865Z,33.83
2018-04-12T18:59:02.394Z,32.40
2018-04-12T19:01:29.940Z,28.70
2018-04-12T19:03:57.516Z,30.30
2018-04-12T19:06:25.157Z,28.50
2018-04-12T19:08:52.697Z,29.10
2018-04-12T19:11:20.226Z,29.70
2018-04-12T19:13:47.750Z,28.10
2018-04-12T19:16:16.064Z,30.13
2018-04-12T19:18:43.585Z,27.50
2018-04-12T19:21:11.140Z,30.37
2018-04-12T19:23:38.838Z,33.13
2018-04-12T19:26:07.172Z,28.63
2018-04-12T19:28:34.702Z,29.63
2018-04-12T19:31:02.229Z,28.97
2018-04-12T19:33:29.770Z,30.33
2018-04-12T19:35:57.313Z,30.33
2018-04-12T19:38:24.878Z,32.90
2018-04-12T19:40:52.407Z,33.70
2018-04-12T19:43:19.958Z,32.43
2018-04-12T19:45:47.530Z,31.97
2018-04-12T19:48:15.072Z,32.80
2018-04-12T19:50:42.587Z,32.23
2018-04-12T19:53:10.151Z,32.33
2018-04-12T19:55:37.683Z,30.90
2018-04-12T19:58:05.246Z,31.63
2018-04-12T20:00:32.795Z,30.80
2018-04-12T20:03:00.382Z,32.57
2018-04-12T20:05:27.910Z,33.33
2018-04-12T20:07:56.291Z,31.90
2018-04-12T20:10:24.688Z,32.97
2018-04-12T20:12:52.223Z,31.57
2018-04-12T20:15:19.827Z,33.10
2018-04-12T20:17:47.385Z,33.20
2018-04-12T20:20:14.923Z,34.63
2018-04-12T20:22:43.319Z,34.03
2018-04-12T20:25:10.858Z,35.30
2018-04-12T20:27:39.312Z,36.00
2018-04-12T20:30:06.898Z,35.00
2018-04-12T20:32:35.248Z,36.73
2018-04-12T20:35:02.795Z,36.77
2018-04-12T20:37:30.313Z,36.90
2018-04-12T20:39:57.884Z,37.30
2018-04-12T20:42:25.423Z,36.37
2018-04-12T20:44:52.954Z,37.73
2018-04-12T20:47:20.468Z,36.73
2018-04-12T20:49:48.780Z,38.80
2018-04-12T20:52:16.306Z,36.73
2018-04-12T20:54:44.185Z,38.53
2018-04-12T20:57:11.816Z,38.17
2018-04-12T20:59:39.371Z,37.40
2018-04-12T21:02:06.904Z,37.77
2018-04-12T21:04:34.449Z,36.90
2018-04-12T21:07:01.989Z,38.90
2018-04-12T21:09:29.542Z,38.70
2018-04-12T21:11:57.066Z,38.10
2018-04-12T21:14:24.665Z,39.57
2018-04-12T21:16:52.158Z,38.57
2018-04-12T21:19:19.946Z,40.50
2018-04-12T21:21:47.471Z,39.53
2018-04-12T21:24:15.015Z,37.97
2018-04-12T21:26:42.560Z,41.30
2018-04-12T21:29:10.131Z,40.47
2018-04-12T21:31:37.695Z,41.40
2018-04-12T21:34:06.028Z,39.60
2018-04-12T21:36:33.555Z,40.13
2018-04-12T21:39:01.078Z,41.87
2018-04-12T21:41:28.617Z,40.83
2018-04-12T21:43:56.138Z,41.07
2018-04-12T21:46:24.482Z,40.20
2018-04-12T21:48:52.013Z,40.57
2018-04-12T21:51:20.350Z,40.30
2018-04-12T21:53:47.890Z,42.73
2018-04-12T21:56:15.428Z,39.50
2018-04-12T21:58:43.090Z,40.80
2018-04-12T22:01:10.618Z,41.17
2018-04-12T22:03:38.160Z,42.43
2018-04-12T22:06:05.702Z,41.53
2018-04-12T22:08:33.222Z,41.73
2018-04-12T22:11:01.632Z,41.93
2018-04-12T22:13:29.159Z,41.97
2018-04-12T22:15:57.818Z,43.80
2018-04-12T22:18:25.357Z,41.60
2018-04-12T22:20:52.907Z,42.37
2018-04-12T22:23:20.437Z,43.40
2018-04-12T22:25:48.743Z,42.07
2018-04-12T22:28:16.254Z,43.37
2018-04-12T22:30:43.790Z,44.40
2018-04-12T22:33:11.442Z,44.20
2018-04-12T22:35:38.988Z,42.30
2018-04-12T22:38:06.516Z,43.33
2018-04-12T22:40:34.825Z,42.73
2018-04-12T22:43:02.372Z,44.80
2018-04-12T22:45:29.919Z,43.03
2018-04-12T22:47:57.446Z,45.20
2018-04-12T22:50:24.983Z,43.13
2018-04-12T22:52:52.523Z,45.23
2018-04-12T22:55:20.051Z,44.77
2018-04-12T22:57:48.451Z,45.00
2018-04-12T23:00:18.766Z,42.90
2018-04-12T23:02:46.306Z,44.10
2018-04-12T23:05:13.822Z,43.40
2018-04-12T23:07:41.369Z,43.23
2018-04-12T23:10:08.983Z,44.43
2018-04-12T23:12:37.713Z,42.88
2018-04-12T23:15:05.230Z,44.50
2018-04-12T23:17:32.766Z,42.67
2018-04-12T23:20:00.455Z,44.40
2018-04-12T23:22:28.071Z,43.70
2018-04-12T23:24:56.378Z,43.67
2018-04-12T23:27:23.922Z,44.37
2018-04-12T23:29:51.747Z,44.50
2018-04-12T23:32:19.402Z,44.00
2018-04-12T23:34:46.939Z,44.03
2018-04-12T23:37:14.474Z,43.00
2018-04-12T23:39:41.985Z,44.43
2018-04-12T23:42:10.302Z,45.67
2018-04-12T23:44:38.878Z,44.20
2018-04-12T23:47:06.429Z,43.23
2018-04-12T23:49:34.177Z,44.70
2018-04-12T23:52:01.857Z,44.20
2018-04-12T23:54:30.175Z,44.40
2018-04-12T23:56:57.729Z,41.93
2018-04-12T23:59:25.461Z,44.67
